sensor_id;sensor_type;location;lat;lon;timestamp;P1;durP1;ratioP1;P2;durP2;ratioP2
70946;SDS011;58605;48.700;8.760;2022-08-24T00:02:23;10.40;;;9.40;;
70946;SDS011;58605;48.700;8.760;2022-08-24T00:04:50;10.50;;;9.50;;
70946;SDS011;58605;48.700;8.760;2022-08-24T00:07:17;10.23;;;9.43;;
70946;SDS011;58605;48.700;8.760;2022-08-24T00:09:43;9.87;;;8.83;;
70946;SDS011;58605;48.700;8.760;2022-08-24T00:12:10;11.17;;;10.07;;
70946;SDS011;58605;48.700;8.760;2022-08-24T00:14:37;11.00;;;10.00;;
70946;SDS011;58605;48.700;8.760;2022-08-24T00:17:05;10.60;;;9.70;;
70946;SDS011;58605;48.700;8.760;2022-08-24T00:19:32;10.83;;;9.73;;
70946;SDS011;58605;48.700;8.760;2022-08-24T00:21:58;9.93;;;9.03;;
70946;SDS011;58605;48.700;8.760;2022-08-24T00:24:25;10.93;;;9.93;;
70946;SDS011;58605;48.700;8.760;2022-08-24T00:26:52;10.40;;;9.50;;
70946;SDS011;58605;48.700;8.760;2022-08-24T00:29:18;10.77;;;9.80;;
70946;SDS011;58605;48.700;8.760;2022-08-24T00:31:46;10.97;;;10.07;;
70946;SDS011;58605;48.700;8.760;2022-08-24T00:34:14;11.07;;;10.17;;
70946;SDS011;58605;48.700;8.760;2022-08-24T00:36:41;10.57;;;9.67;;
70946;SDS011;58605;48.700;8.760;2022-08-24T00:39:09;10.63;;;9.73;;
70946;SDS011;58605;48.700;8.760;2022-08-24T00:41:38;9.80;;;9.07;;
70946;SDS011;58605;48.700;8.760;2022-08-24T00:44:05;10.57;;;9.67;;
70946;SDS011;58605;48.700;8.760;2022-08-24T00:46:33;11.70;;;10.70;;
70946;SDS011;58605;48.700;8.760;2022-08-24T00:49:09;10.80;;;9.90;;
70946;SDS011;58605;48.700;8.760;2022-08-24T00:51:49;12.47;;;11.10;;
70946;SDS011;58605;48.700;8.760;2022-08-24T00:54:20;11.13;;;10.13;;
70946;SDS011;58605;48.700;8.760;2022-08-24T00:56:51;10.23;;;9.37;;
70946;SDS011;58605;48.700;8.760;2022-08-24T00:59:20;11.60;;;10.60;;
70946;SDS011;58605;48.700;8.760;2022-08-24T01:01:48;11.27;;;10.37;;
70946;SDS011;58605;48.700;8.760;2022-08-24T01:04:17;10.87;;;9.93;;
70946;SDS011;58605;48.700;8.760;2022-08-24T01:06:48;11.00;;;10.00;;
70946;SDS011;58605;48.700;8.760;2022-08-24T01:09:14;11.50;;;10.50;;
70946;SDS011;58605;48.700;8.760;2022-08-24T01:11:41;11.27;;;10.37;;
70946;SDS011;58605;48.700;8.760;2022-08-24T01:14:07;11.83;;;10.73;;
70946;SDS011;58605;48.700;8.760;2022-08-24T01:16:33;10.73;;;9.83;;
70946;SDS011;58605;48.700;8.760;2022-08-24T01:19:21;10.90;;;10.00;;
70946;SDS011;58605;48.700;8.760;2022-08-24T01:21:57;11.37;;;10.37;;
70946;SDS011;58605;48.700;8.760;2022-08-24T01:24:35;11.23;;;10.10;;
70946;SDS011;58605;48.700;8.760;2022-08-24T01:27:02;11.43;;;10.47;;
70946;SDS011;58605;48.700;8.760;2022-08-24T01:29:29;11.60;;;10.60;;
70946;SDS011;58605;48.700;8.760;2022-08-24T01:31:56;12.17;;;11.07;;
70946;SDS011;58605;48.700;8.760;2022-08-24T01:34:22;12.03;;;10.93;;
70946;SDS011;58605;48.700;8.760;2022-08-24T01:36:49;11.93;;;10.93;;
70946;SDS011;58605;48.700;8.760;2022-08-24T01:39:21;12.03;;;10.83;;
70946;SDS011;58605;48.700;8.760;2022-08-24T01:41:51;12.00;;;11.00;;
70946;SDS011;58605;48.700;8.760;2022-08-24T01:44:17;12.47;;;11.37;;
70946;SDS011;58605;48.700;8.760;2022-08-24T01:46:44;11.83;;;10.80;;
70946;SDS011;58605;48.700;8.760;2022-08-24T01:49:12;11.83;;;10.77;;
70946;SDS011;58605;48.700;8.760;2022-08-24T01:51:39;12.53;;;11.33;;
70946;SDS011;58605;48.700;8.760;2022-08-24T01:54:06;13.13;;;11.83;;
70946;SDS011;58605;48.700;8.760;2022-08-24T01:56:34;12.33;;;11.30;;
70946;SDS011;58605;48.700;8.760;2022-08-24T01:59:02;12.43;;;11.33;;
70946;SDS011;58605;48.700;8.760;2022-08-24T02:01:29;12.30;;;11.33;;
70946;SDS011;58605;48.700;8.760;2022-08-24T02:03:59;12.83;;;11.70;;
70946;SDS011;58605;48.700;8.760;2022-08-24T02:06:28;12.50;;;11.50;;
70946;SDS011;58605;48.700;8.760;2022-08-24T02:08:54;12.80;;;11.60;;
70946;SDS011;58605;48.700;8.760;2022-08-24T02:11:20;12.40;;;11.30;;
70946;SDS011;58605;48.700;8.760;2022-08-24T02:13:47;12.33;;;11.33;;
70946;SDS011;58605;48.700;8.760;2022-08-24T02:16:14;12.23;;;10.73;;
70946;SDS011;58605;48.700;8.760;2022-08-24T02:18:40;11.97;;;11.07;;
70946;SDS011;58605;48.700;8.760;2022-08-24T02:21:07;12.00;;;10.90;;
70946;SDS011;58605;48.700;8.760;2022-08-24T02:23:33;11.30;;;10.40;;
70946;SDS011;58605;48.700;8.760;2022-08-24T02:26:00;12.67;;;11.47;;
70946;SDS011;58605;48.700;8.760;2022-08-24T02:28:27;12.53;;;11.43;;
70946;SDS011;58605;48.700;8.760;2022-08-24T02:30:53;12.37;;;11.23;;
70946;SDS011;58605;48.700;8.760;2022-08-24T02:33:21;12.47;;;11.37;;
70946;SDS011;58605;48.700;8.760;2022-08-24T02:35:50;12.80;;;11.70;;
70946;SDS011;58605;48.700;8.760;2022-08-24T02:38:16;12.47;;;11.40;;
70946;SDS011;58605;48.700;8.760;2022-08-24T02:40:42;13.10;;;12.00;;
70946;SDS011;58605;48.700;8.760;2022-08-24T02:43:09;13.13;;;12.00;;
70946;SDS011;58605;48.700;8.760;2022-08-24T02:45:37;12.80;;;11.67;;
70946;SDS011;58605;48.700;8.760;2022-08-24T02:48:03;11.37;;;10.40;;
70946;SDS011;58605;48.700;8.760;2022-08-24T02:50:31;12.27;;;11.10;;
70946;SDS011;58605;48.700;8.760;2022-08-24T02:52:57;12.60;;;11.60;;
70946;SDS011;58605;48.700;8.760;2022-08-24T02:55:23;12.17;;;11.20;;
70946;SDS011;58605;48.700;8.760;2022-08-24T02:57:49;12.87;;;11.67;;
70946;SDS011;58605;48.700;8.760;2022-08-24T03:00:16;12.70;;;11.67;;
70946;SDS011;58605;48.700;8.760;2022-08-24T03:02:44;12.40;;;11.40;;
70946;SDS011;58605;48.700;8.760;2022-08-24T03:05:10;12.90;;;11.80;;
70946;SDS011;58605;48.700;8.760;2022-08-24T03:07:38;12.30;;;11.20;;
70946;SDS011;58605;48.700;8.760;2022-08-24T03:10:05;11.93;;;10.77;;
70946;SDS011;58605;48.700;8.760;2022-08-24T03:12:31;12.53;;;11.53;;
70946;SDS011;58605;48.700;8.760;2022-08-24T03:14:58;13.40;;;12.20;;
70946;SDS011;58605;48.700;8.760;2022-08-24T03:17:26;13.80;;;12.50;;
70946;SDS011;58605;48.700;8.760;2022-08-24T03:19:55;13.70;;;12.57;;
70946;SDS011;58605;48.700;8.760;2022-08-24T03:22:21;13.53;;;12.07;;
70946;SDS011;58605;48.700;8.760;2022-08-24T03:24:49;12.77;;;11.77;;
70946;SDS011;58605;48.700;8.760;2022-08-24T03:27:16;14.40;;;13.03;;
70946;SDS011;58605;48.700;8.760;2022-08-24T03:29:42;14.77;;;13.13;;
70946;SDS011;58605;48.700;8.760;2022-08-24T03:32:08;13.47;;;12.33;;
70946;SDS011;58605;48.700;8.760;2022-08-24T03:34:34;14.70;;;13.40;;
70946;SDS011;58605;48.700;8.760;2022-08-24T03:37:02;13.77;;;12.67;;
70946;SDS011;58605;48.700;8.760;2022-08-24T03:39:28;13.53;;;12.43;;
70946;SDS011;58605;48.700;8.760;2022-08-24T03:41:56;14.30;;;13.10;;
70946;SDS011;58605;48.700;8.760;2022-08-24T03:44:22;13.37;;;12.27;;
70946;SDS011;58605;48.700;8.760;2022-08-24T03:46:49;13.73;;;12.53;;
70946;SDS011;58605;48.700;8.760;2022-08-24T03:49:17;13.80;;;12.50;;
70946;SDS011;58605;48.700;8.760;2022-08-24T03:51:44;13.03;;;11.80;;
70946;SDS011;58605;48.700;8.760;2022-08-24T03:54:11;13.07;;;12.07;;
70946;SDS011;58605;48.700;8.760;2022-08-24T03:56:38;12.67;;;11.67;;
70946;SDS011;58605;48.700;8.760;2022-08-24T03:59:07;12.90;;;11.70;;
70946;SDS011;58605;48.700;8.760;2022-08-24T04:01:35;12.80;;;11.80;;
70946;SDS011;58605;48.700;8.760;2022-08-24T04:04:01;14.00;;;12.67;;
70946;SDS011;58605;48.700;8.760;2022-08-24T04:06:28;14.30;;;12.97;;
70946;SDS011;58605;48.700;8.760;2022-08-24T04:08:54;12.87;;;11.83;;
70946;SDS011;58605;48.700;8.760;2022-08-24T04:11:22;11.97;;;10.97;;
70946;SDS011;58605;48.700;8.760;2022-08-24T04:13:50;13.30;;;12.10;;
70946;SDS011;58605;48.700;8.760;2022-08-24T04:16:19;14.17;;;13.03;;
70946;SDS011;58605;48.700;8.760;2022-08-24T04:18:46;13.80;;;12.70;;
70946;SDS011;58605;48.700;8.760;2022-08-24T04:21:16;14.77;;;13.20;;
70946;SDS011;58605;48.700;8.760;2022-08-24T04:23:44;13.73;;;12.37;;
70946;SDS011;58605;48.700;8.760;2022-08-24T04:26:10;14.67;;;13.27;;
70946;SDS011;58605;48.700;8.760;2022-08-24T04:28:37;13.53;;;12.37;;
70946;SDS011;58605;48.700;8.760;2022-08-24T04:31:03;14.07;;;12.77;;
70946;SDS011;58605;48.700;8.760;2022-08-24T04:33:31;14.67;;;13.27;;
70946;SDS011;58605;48.700;8.760;2022-08-24T04:35:58;14.03;;;12.77;;
70946;SDS011;58605;48.700;8.760;2022-08-24T04:38:25;14.23;;;12.93;;
70946;SDS011;58605;48.700;8.760;2022-08-24T04:40:51;14.70;;;13.30;;
70946;SDS011;58605;48.700;8.760;2022-08-24T04:43:17;14.90;;;13.13;;
70946;SDS011;58605;48.700;8.760;2022-08-24T04:45:44;15.10;;;13.60;;
70946;SDS011;58605;48.700;8.760;2022-08-24T04:48:12;15.63;;;14.10;;
70946;SDS011;58605;48.700;8.760;2022-08-24T04:50:41;15.67;;;14.13;;
70946;SDS011;58605;48.700;8.760;2022-08-24T04:53:09;15.80;;;14.40;;
70946;SDS011;58605;48.700;8.760;2022-08-24T04:55:41;14.03;;;12.77;;
70946;SDS011;58605;48.700;8.760;2022-08-24T04:58:09;12.77;;;11.67;;
70946;SDS011;58605;48.700;8.760;2022-08-24T05:00:35;13.23;;;12.13;;
70946;SDS011;58605;48.700;8.760;2022-08-24T05:03:02;12.63;;;11.50;;
70946;SDS011;58605;48.700;8.760;2022-08-24T05:05:28;12.73;;;11.50;;
70946;SDS011;58605;48.700;8.760;2022-08-24T05:07:56;13.40;;;12.13;;
70946;SDS011;58605;48.700;8.760;2022-08-24T05:10:22;14.17;;;12.83;;
70946;SDS011;58605;48.700;8.760;2022-08-24T05:12:48;15.90;;;13.07;;
70946;SDS011;58605;48.700;8.760;2022-08-24T05:15:14;15.87;;;14.47;;
70946;SDS011;58605;48.700;8.760;2022-08-24T05:17:40;15.37;;;13.90;;
70946;SDS011;58605;48.700;8.760;2022-08-24T05:20:07;15.20;;;13.70;;
70946;SDS011;58605;48.700;8.760;2022-08-24T05:22:34;15.63;;;14.10;;
70946;SDS011;58605;48.700;8.760;2022-08-24T05:25:03;14.07;;;12.87;;
70946;SDS011;58605;48.700;8.760;2022-08-24T05:27:31;15.00;;;13.50;;
70946;SDS011;58605;48.700;8.760;2022-08-24T05:29:58;15.83;;;14.30;;
70946;SDS011;58605;48.700;8.760;2022-08-24T05:32:24;15.13;;;13.83;;
70946;SDS011;58605;48.700;8.760;2022-08-24T05:34:50;15.43;;;13.90;;
70946;SDS011;58605;48.700;8.760;2022-08-24T05:37:16;16.20;;;14.73;;
70946;SDS011;58605;48.700;8.760;2022-08-24T05:39:42;14.57;;;13.30;;
70946;SDS011;58605;48.700;8.760;2022-08-24T05:42:10;15.20;;;13.70;;
70946;SDS011;58605;48.700;8.760;2022-08-24T05:44:37;14.90;;;13.40;;
70946;SDS011;58605;48.700;8.760;2022-08-24T05:47:03;13.93;;;12.63;;
70946;SDS011;58605;48.700;8.760;2022-08-24T05:49:35;16.30;;;12.90;;
70946;SDS011;58605;48.700;8.760;2022-08-24T05:52:02;12.07;;;10.87;;
70946;SDS011;58605;48.700;8.760;2022-08-24T05:54:28;11.43;;;10.33;;
70946;SDS011;58605;48.700;8.760;2022-08-24T05:56:54;11.77;;;10.20;;
70946;SDS011;58605;48.700;8.760;2022-08-24T05:59:23;11.87;;;10.20;;
70946;SDS011;58605;48.700;8.760;2022-08-24T06:01:49;11.53;;;10.43;;
70946;SDS011;58605;48.700;8.760;2022-08-24T06:04:15;10.87;;;9.87;;
70946;SDS011;58605;48.700;8.760;2022-08-24T06:06:41;11.10;;;10.03;;
70946;SDS011;58605;48.700;8.760;2022-08-24T06:09:09;10.97;;;9.87;;
70946;SDS011;58605;48.700;8.760;2022-08-24T06:11:36;10.93;;;9.90;;
70946;SDS011;58605;48.700;8.760;2022-08-24T06:14:04;10.30;;;9.07;;
70946;SDS011;58605;48.700;8.760;2022-08-24T06:16:35;10.13;;;9.13;;
70946;SDS011;58605;48.700;8.760;2022-08-24T06:19:02;10.53;;;9.60;;
70946;SDS011;58605;48.700;8.760;2022-08-24T06:21:30;10.77;;;9.80;;
70946;SDS011;58605;48.700;8.760;2022-08-24T06:23:56;10.90;;;9.90;;
70946;SDS011;58605;48.700;8.760;2022-08-24T06:26:23;10.37;;;9.43;;
70946;SDS011;58605;48.700;8.760;2022-08-24T06:29:08;11.03;;;9.77;;
70946;SDS011;58605;48.700;8.760;2022-08-24T06:31:36;9.77;;;8.87;;
70946;SDS011;58605;48.700;8.760;2022-08-24T06:34:04;9.93;;;8.97;;
70946;SDS011;58605;48.700;8.760;2022-08-24T06:36:30;9.80;;;8.97;;
70946;SDS011;58605;48.700;8.760;2022-08-24T06:38:56;12.87;;;9.33;;
70946;SDS011;58605;48.700;8.760;2022-08-24T06:41:23;9.67;;;8.87;;
70946;SDS011;58605;48.700;8.760;2022-08-24T06:43:50;10.27;;;9.30;;
70946;SDS011;58605;48.700;8.760;2022-08-24T06:46:16;10.37;;;8.93;;
70946;SDS011;58605;48.700;8.760;2022-08-24T06:48:44;10.07;;;8.70;;
70946;SDS011;58605;48.700;8.760;2022-08-24T06:51:14;9.73;;;8.83;;
70946;SDS011;58605;48.700;8.760;2022-08-24T06:53:42;9.23;;;7.77;;
70946;SDS011;58605;48.700;8.760;2022-08-24T06:56:09;9.17;;;8.17;;
70946;SDS011;58605;48.700;8.760;2022-08-24T06:58:42;8.67;;;7.63;;
70946;SDS011;58605;48.700;8.760;2022-08-24T07:01:11;9.63;;;8.30;;
70946;SDS011;58605;48.700;8.760;2022-08-24T07:03:38;8.35;;;7.13;;
70946;SDS011;58605;48.700;8.760;2022-08-24T07:06:06;8.23;;;6.97;;
70946;SDS011;58605;48.700;8.760;2022-08-24T07:08:40;7.97;;;7.30;;
70946;SDS011;58605;48.700;8.760;2022-08-24T07:11:07;11.17;;;7.50;;
70946;SDS011;58605;48.700;8.760;2022-08-24T07:13:34;7.82;;;6.88;;
70946;SDS011;58605;48.700;8.760;2022-08-24T07:16:00;7.47;;;6.70;;
70946;SDS011;58605;48.700;8.760;2022-08-24T07:18:27;7.35;;;6.75;;
70946;SDS011;58605;48.700;8.760;2022-08-24T07:20:53;7.63;;;6.93;;
70946;SDS011;58605;48.700;8.760;2022-08-24T07:23:21;8.98;;;7.10;;
70946;SDS011;58605;48.700;8.760;2022-08-24T07:25:47;7.88;;;6.60;;
70946;SDS011;58605;48.700;8.760;2022-08-24T07:28:13;6.75;;;6.10;;
70946;SDS011;58605;48.700;8.760;2022-08-24T07:30:46;7.13;;;6.40;;
70946;SDS011;58605;48.700;8.760;2022-08-24T07:33:12;8.10;;;6.53;;
70946;SDS011;58605;48.700;8.760;2022-08-24T07:35:38;7.70;;;6.32;;
70946;SDS011;58605;48.700;8.760;2022-08-24T07:38:05;8.93;;;6.07;;
70946;SDS011;58605;48.700;8.760;2022-08-24T07:40:33;6.38;;;5.78;;
70946;SDS011;58605;48.700;8.760;2022-08-24T07:43:00;8.20;;;5.90;;
70946;SDS011;58605;48.700;8.760;2022-08-24T07:45:26;6.75;;;5.95;;
70946;SDS011;58605;48.700;8.760;2022-08-24T07:47:54;8.32;;;5.75;;
70946;SDS011;58605;48.700;8.760;2022-08-24T07:50:20;7.22;;;6.30;;
70946;SDS011;58605;48.700;8.760;2022-08-24T07:52:46;9.25;;;5.90;;
70946;SDS011;58605;48.700;8.760;2022-08-24T07:55:12;6.63;;;6.03;;
70946;SDS011;58605;48.700;8.760;2022-08-24T07:57:40;8.77;;;6.05;;
70946;SDS011;58605;48.700;8.760;2022-08-24T08:00:10;6.95;;;6.25;;
70946;SDS011;58605;48.700;8.760;2022-08-24T08:02:38;7.65;;;6.32;;
70946;SDS011;58605;48.700;8.760;2022-08-24T08:05:07;8.57;;;6.22;;
70946;SDS011;58605;48.700;8.760;2022-08-24T08:07:33;9.20;;;5.90;;
70946;SDS011;58605;48.700;8.760;2022-08-24T08:09:59;7.97;;;6.03;;
70946;SDS011;58605;48.700;8.760;2022-08-24T08:12:26;8.93;;;5.50;;
70946;SDS011;58605;48.700;8.760;2022-08-24T08:14:53;5.78;;;4.90;;
70946;SDS011;58605;48.700;8.760;2022-08-24T08:17:21;6.10;;;5.43;;
70946;SDS011;58605;48.700;8.760;2022-08-24T08:19:48;5.75;;;5.25;;
70946;SDS011;58605;48.700;8.760;2022-08-24T08:22:14;5.70;;;5.20;;
70946;SDS011;58605;48.700;8.760;2022-08-24T08:24:59;6.18;;;4.90;;
70946;SDS011;58605;48.700;8.760;2022-08-24T08:27:25;7.03;;;5.43;;
70946;SDS011;58605;48.700;8.760;2022-08-24T08:29:51;5.32;;;4.82;;
70946;SDS011;58605;48.700;8.760;2022-08-24T08:32:19;5.53;;;4.97;;
70946;SDS011;58605;48.700;8.760;2022-08-24T08:34:45;6.70;;;4.57;;
70946;SDS011;58605;48.700;8.760;2022-08-24T08:37:12;5.60;;;5.10;;
70946;SDS011;58605;48.700;8.760;2022-08-24T08:39:39;6.47;;;4.57;;
70946;SDS011;58605;48.700;8.760;2022-08-24T08:42:29;6.55;;;4.95;;
70946;SDS011;58605;48.700;8.760;2022-08-24T08:45:12;5.45;;;4.90;;
70946;SDS011;58605;48.700;8.760;2022-08-24T08:51:03;5.32;;;4.43;;
70946;SDS011;58605;48.700;8.760;2022-08-24T08:56:38;3.92;;;3.10;;
70946;SDS011;58605;48.700;8.760;2022-08-24T08:59:11;2.90;;;2.70;;
70946;SDS011;58605;48.700;8.760;2022-08-24T09:01:45;3.00;;;2.80;;
70946;SDS011;58605;48.700;8.760;2022-08-24T09:07:40;3.30;;;3.00;;
70946;SDS011;58605;48.700;8.760;2022-08-24T09:10:19;3.08;;;2.78;;
70946;SDS011;58605;48.700;8.760;2022-08-24T09:13:00;5.95;;;3.17;;
70946;SDS011;58605;48.700;8.760;2022-08-24T09:15:54;6.95;;;3.38;;
70946;SDS011;58605;48.700;8.760;2022-08-24T09:18:38;5.18;;;3.10;;
70946;SDS011;58605;48.700;8.760;2022-08-24T09:21:22;4.35;;;2.85;;
70946;SDS011;58605;48.700;8.760;2022-08-24T09:24:15;4.95;;;3.45;;
70946;SDS011;58605;48.700;8.760;2022-08-24T09:26:51;5.55;;;3.28;;
70946;SDS011;58605;48.700;8.760;2022-08-24T09:29:31;4.00;;;2.92;;
70946;SDS011;58605;48.700;8.760;2022-08-24T09:32:17;4.28;;;3.08;;
70946;SDS011;58605;48.700;8.760;2022-08-24T09:34:57;3.55;;;3.00;;
70946;SDS011;58605;48.700;8.760;2022-08-24T09:37:28;4.22;;;3.35;;
70946;SDS011;58605;48.700;8.760;2022-08-24T09:40:01;3.25;;;2.85;;
70946;SDS011;58605;48.700;8.760;2022-08-24T09:55:01;3.22;;;2.92;;
70946;SDS011;58605;48.700;8.760;2022-08-24T09:58:03;3.90;;;2.80;;
70946;SDS011;58605;48.700;8.760;2022-08-24T10:00:38;3.30;;;2.78;;
70946;SDS011;58605;48.700;8.760;2022-08-24T10:03:15;3.53;;;2.75;;
70946;SDS011;58605;48.700;8.760;2022-08-24T10:06:05;2.97;;;2.78;;
70946;SDS011;58605;48.700;8.760;2022-08-24T10:11:37;3.05;;;2.72;;
70946;SDS011;58605;48.700;8.760;2022-08-24T10:14:13;3.30;;;2.53;;
70946;SDS011;58605;48.700;8.760;2022-08-24T10:16:52;3.10;;;2.78;;
70946;SDS011;58605;48.700;8.760;2022-08-24T10:19:31;4.45;;;2.90;;
70946;SDS011;58605;48.700;8.760;2022-08-24T10:22:09;3.63;;;2.95;;
70946;SDS011;58605;48.700;8.760;2022-08-24T10:27:28;3.33;;;2.80;;
70946;SDS011;58605;48.700;8.760;2022-08-24T10:30:17;3.85;;;2.65;;
70946;SDS011;58605;48.700;8.760;2022-08-24T10:33:03;5.97;;;2.80;;
70946;SDS011;58605;48.700;8.760;2022-08-24T10:35:44;4.30;;;2.65;;
70946;SDS011;58605;48.700;8.760;2022-08-24T10:38:29;4.22;;;2.90;;
70946;SDS011;58605;48.700;8.760;2022-08-24T10:41:39;4.15;;;2.70;;
70946;SDS011;58605;48.700;8.760;2022-08-24T10:44:45;3.10;;;2.80;;
70946;SDS011;58605;48.700;8.760;2022-08-24T10:47:22;3.05;;;2.67;;
70946;SDS011;58605;48.700;8.760;2022-08-24T10:50:02;2.80;;;2.60;;
70946;SDS011;58605;48.700;8.760;2022-08-24T10:52:56;2.92;;;2.50;;
70946;SDS011;58605;48.700;8.760;2022-08-24T10:55:35;2.75;;;2.20;;
70946;SDS011;58605;48.700;8.760;2022-08-24T10:58:18;3.92;;;2.80;;
70946;SDS011;58605;48.700;8.760;2022-08-24T11:01:11;2.40;;;2.17;;
70946;SDS011;58605;48.700;8.760;2022-08-24T11:03:46;2.97;;;2.72;;
70946;SDS011;58605;48.700;8.760;2022-08-24T11:06:18;2.90;;;2.70;;
70946;SDS011;58605;48.700;8.760;2022-08-24T11:08:54;3.38;;;2.72;;
70946;SDS011;58605;48.700;8.760;2022-08-24T11:11:28;2.85;;;2.63;;
70946;SDS011;58605;48.700;8.760;2022-08-24T11:13:56;4.47;;;2.67;;
70946;SDS011;58605;48.700;8.760;2022-08-24T11:16:31;3.30;;;2.70;;
70946;SDS011;58605;48.700;8.760;2022-08-24T11:19:00;3.42;;;2.40;;
70946;SDS011;58605;48.700;8.760;2022-08-24T11:24:27;3.22;;;2.92;;
70946;SDS011;58605;48.700;8.760;2022-08-24T11:30:28;3.28;;;2.95;;
70946;SDS011;58605;48.700;8.760;2022-08-24T11:33:04;4.03;;;2.92;;
70946;SDS011;58605;48.700;8.760;2022-08-24T11:35:47;4.80;;;2.90;;
70946;SDS011;58605;48.700;8.760;2022-08-24T11:38:14;3.03;;;2.65;;
70946;SDS011;58605;48.700;8.760;2022-08-24T11:40:43;2.88;;;2.40;;
70946;SDS011;58605;48.700;8.760;2022-08-24T11:43:19;2.92;;;2.63;;
70946;SDS011;58605;48.700;8.760;2022-08-24T11:48:43;4.43;;;3.35;;
70946;SDS011;58605;48.700;8.760;2022-08-24T11:51:28;5.78;;;4.53;;
70946;SDS011;58605;48.700;8.760;2022-08-24T11:54:01;16.88;;;10.57;;
70946;SDS011;58605;48.700;8.760;2022-08-24T11:56:34;11.35;;;7.03;;
70946;SDS011;58605;48.700;8.760;2022-08-24T11:59:06;6.38;;;3.20;;
70946;SDS011;58605;48.700;8.760;2022-08-24T12:01:43;12.57;;;8.05;;
70946;SDS011;58605;48.700;8.760;2022-08-24T12:06:58;9.85;;;5.55;;
70946;SDS011;58605;48.700;8.760;2022-08-24T12:09:37;5.93;;;3.90;;
70946;SDS011;58605;48.700;8.760;2022-08-24T12:12:16;5.65;;;3.72;;
70946;SDS011;58605;48.700;8.760;2022-08-24T12:14:48;8.80;;;5.55;;
70946;SDS011;58605;48.700;8.760;2022-08-24T12:17:25;16.63;;;10.90;;
70946;SDS011;58605;48.700;8.760;2022-08-24T12:19:59;18.10;;;11.57;;
70946;SDS011;58605;48.700;8.760;2022-08-24T12:22:29;7.00;;;5.10;;
70946;SDS011;58605;48.700;8.760;2022-08-24T12:24:57;15.80;;;9.52;;
70946;SDS011;58605;48.700;8.760;2022-08-24T12:27:27;3.38;;;2.70;;
70946;SDS011;58605;48.700;8.760;2022-08-24T12:29:57;13.13;;;7.78;;
70946;SDS011;58605;48.700;8.760;2022-08-24T12:32:29;7.07;;;5.03;;
70946;SDS011;58605;48.700;8.760;2022-08-24T12:35:03;9.90;;;6.50;;
